createdAt,value
2017-03-25T00:00:37.344Z,1028.77
2017-03-25T00:01:18.225Z,1028.81
2017-03-25T00:01:59.102Z,1028.77
2017-03-25T00:02:39.981Z,1028.75
2017-03-25T00:03:20.857Z,1028.75
2017-03-25T00:04:01.743Z,1028.73
2017-03-25T00:04:42.622Z,1028.76
2017-03-25T00:05:23.508Z,1028.77
2017-03-25T00:06:04.389Z,1028.76
2017-03-25T00:06:45.270Z,1028.82
2017-03-25T00:07:26.153Z,1028.82
2017-03-25T00:08:07.038Z,1028.8
2017-03-25T00:08:47.909Z,1028.79
2017-03-25T00:09:28.800Z,1028.77
2017-03-25T00:10:09.684Z,1028.78
2017-03-25T00:10:50.569Z,1028.75
2017-03-25T00:11:31.446Z,1028.77
2017-03-25T00:12:12.327Z,1028.77
2017-03-25T00:12:53.206Z,1028.76
2017-03-25T00:13:34.091Z,1028.74
2017-03-25T00:14:14.967Z,1028.77
2017-03-25T00:14:55.847Z,1028.76
2017-03-25T00:15:36.735Z,1028.8
2017-03-25T00:16:17.608Z,1028.8
2017-03-25T00:16:58.488Z,1028.75
2017-03-25T00:17:39.370Z,1028.78
2017-03-25T00:18:20.255Z,1028.76
2017-03-25T00:19:01.139Z,1028.72
2017-03-25T00:19:42.018Z,1028.77
2017-03-25T00:20:22.897Z,1028.76
2017-03-25T00:21:03.775Z,1028.8
2017-03-25T00:21:44.660Z,1028.81
2017-03-25T00:22:25.546Z,1028.76
2017-03-25T00:23:06.424Z,1028.81
2017-03-25T00:23:47.312Z,1028.81
2017-03-25T00:24:28.192Z,1028.82
2017-03-25T00:25:09.072Z,1028.85
2017-03-25T00:25:49.954Z,1028.84
2017-03-25T00:26:30.834Z,1028.85
2017-03-25T00:27:11.716Z,1028.85
2017-03-25T00:27:52.600Z,1028.91
2017-03-25T00:28:33.474Z,1028.89
2017-03-25T00:29:14.349Z,1028.89
2017-03-25T00:29:55.230Z,1028.86
2017-03-25T00:30:36.114Z,1028.85
2017-03-25T00:31:16.997Z,1028.86
2017-03-25T00:31:57.876Z,1028.82
2017-03-25T00:32:38.760Z,1028.79
2017-03-25T00:33:19.646Z,1028.82
2017-03-25T00:34:00.524Z,1028.8
2017-03-25T00:34:41.409Z,1028.81
2017-03-25T00:35:22.293Z,1028.81
2017-03-25T00:36:03.187Z,1028.81
2017-03-25T00:36:44.073Z,1028.81
2017-03-25T00:37:24.942Z,1028.82
2017-03-25T00:38:05.855Z,1028.81
2017-03-25T00:38:46.730Z,1028.8
2017-03-25T00:39:27.613Z,1028.84
2017-03-25T00:40:08.492Z,1028.82
2017-03-25T00:40:49.372Z,1028.82
2017-03-25T00:41:30.254Z,1028.8
2017-03-25T00:42:11.141Z,1028.79
2017-03-25T00:42:52.012Z,1028.78
2017-03-25T00:43:32.892Z,1028.8
2017-03-25T00:44:13.784Z,1028.82
2017-03-25T00:44:54.673Z,1028.77
2017-03-25T00:45:35.552Z,1028.78
2017-03-25T00:46:16.433Z,1028.8
2017-03-25T00:46:57.325Z,1028.79
2017-03-25T00:47:38.210Z,1028.8
2017-03-25T00:48:19.092Z,1028.73
2017-03-25T00:48:59.980Z,1028.76
2017-03-25T00:49:40.872Z,1028.76
2017-03-25T00:50:21.755Z,1028.76
2017-03-25T00:51:02.643Z,1028.73
2017-03-25T00:51:43.533Z,1028.73
2017-03-25T00:52:24.419Z,1028.73
2017-03-25T00:53:05.293Z,1028.74
2017-03-25T00:53:46.178Z,1028.72
2017-03-25T00:54:27.064Z,1028.76
2017-03-25T00:55:07.946Z,1028.73
2017-03-25T00:55:48.830Z,1028.69
2017-03-25T00:56:29.711Z,1028.71
2017-03-25T00:57:10.595Z,1028.71
2017-03-25T00:57:51.471Z,1028.64
2017-03-25T00:58:32.352Z,1028.64
2017-03-25T00:59:13.236Z,1028.6
2017-03-25T00:59:54.120Z,1028.61
2017-03-25T01:00:35.006Z,1028.58
2017-03-25T01:01:15.885Z,1028.6
2017-03-25T01:01:56.769Z,1028.6
2017-03-25T01:02:37.654Z,1028.58
2017-03-25T01:03:18.537Z,1028.6
2017-03-25T01:03:59.420Z,1028.59
2017-03-25T01:04:40.298Z,1028.6
2017-03-25T01:05:21.178Z,1028.59
2017-03-25T01:06:02.063Z,1028.6
2017-03-25T01:06:42.949Z,1028.66
2017-03-25T01:07:23.824Z,1028.61
2017-03-25T01:08:04.705Z,1028.62
2017-03-25T01:08:45.586Z,1028.65
2017-03-25T01:09:26.473Z,1028.65
2017-03-25T01:10:07.343Z,1028.63
2017-03-25T01:10:48.233Z,1028.61
2017-03-25T01:11:29.111Z,1028.61
2017-03-25T01:12:09.993Z,1028.58
2017-03-25T01:12:50.875Z,1028.57
2017-03-25T01:13:31.758Z,1028.53
2017-03-25T01:14:12.633Z,1028.58
2017-03-25T01:14:53.526Z,1028.53
2017-03-25T01:15:34.405Z,1028.52
2017-03-25T01:16:15.282Z,1028.54
2017-03-25T01:16:56.170Z,1028.53
2017-03-25T01:17:37.055Z,1028.52
2017-03-25T01:18:17.933Z,1028.5
2017-03-25T01:18:58.804Z,1028.5
2017-03-25T01:19:39.687Z,1028.51
2017-03-25T01:20:20.574Z,1028.49
2017-03-25T01:21:01.453Z,1028.51
2017-03-25T01:21:42.333Z,1028.46
2017-03-25T01:22:23.220Z,1028.49
2017-03-25T01:23:04.105Z,1028.51
2017-03-25T01:23:44.986Z,1028.47
2017-03-25T01:24:25.867Z,1028.48
2017-03-25T01:25:06.744Z,1028.45
2017-03-25T01:25:47.631Z,1028.41
2017-03-25T01:26:28.512Z,1028.38
2017-03-25T01:27:09.394Z,1028.42
2017-03-25T01:27:50.276Z,1028.37
2017-03-25T01:28:31.160Z,1028.35
2017-03-25T01:29:12.036Z,1028.37
2017-03-25T01:29:52.906Z,1028.33
2017-03-25T01:30:33.783Z,1028.3
2017-03-25T01:31:14.662Z,1028.31
2017-03-25T01:31:55.538Z,1028.32
2017-03-25T01:32:36.422Z,1028.32
2017-03-25T01:33:17.303Z,1028.32
2017-03-25T01:33:58.185Z,1028.3
2017-03-25T01:34:39.069Z,1028.28
2017-03-25T01:35:19.952Z,1028.29
2017-03-25T01:36:00.833Z,1028.31
2017-03-25T01:36:41.717Z,1028.27
2017-03-25T01:37:22.596Z,1028.24
2017-03-25T01:38:03.484Z,1028.23
2017-03-25T01:38:44.361Z,1028.24
2017-03-25T01:39:25.237Z,1028.21
2017-03-25T01:40:06.116Z,1028.22
2017-03-25T01:40:46.997Z,1028.2
2017-03-25T01:41:27.882Z,1028.23
2017-03-25T01:42:08.768Z,1028.19
2017-03-25T01:42:49.643Z,1028.18
2017-03-25T01:43:30.525Z,1028.17
2017-03-25T01:44:11.407Z,1028.17
2017-03-25T01:44:52.290Z,1028.19
2017-03-25T01:45:33.166Z,1028.16
2017-03-25T01:46:14.049Z,1028.19
2017-03-25T01:46:54.928Z,1028.18
2017-03-25T01:47:35.807Z,1028.18
2017-03-25T01:48:16.693Z,1028.16
2017-03-25T01:48:57.569Z,1028.21
2017-03-25T01:49:38.461Z,1028.19
2017-03-25T01:50:19.346Z,1028.21
2017-03-25T01:51:00.228Z,1028.22
2017-03-25T01:51:41.102Z,1028.23
2017-03-25T01:52:21.986Z,1028.23
2017-03-25T01:53:02.872Z,1028.24
2017-03-25T01:53:43.753Z,1028.26
2017-03-25T01:54:24.633Z,1028.22
2017-03-25T01:55:05.516Z,1028.24
2017-03-25T01:55:46.442Z,1028.21
2017-03-25T01:56:27.277Z,1028.23
2017-03-25T01:57:08.156Z,1028.2
2017-03-25T01:57:49.045Z,1028.21
2017-03-25T01:58:29.924Z,1028.22
2017-03-25T01:59:10.807Z,1028.25
2017-03-25T01:59:51.687Z,1028.18
2017-03-25T02:00:32.566Z,1028.24
2017-03-25T02:01:13.432Z,1028.21
2017-03-25T02:01:54.315Z,1028.2
2017-03-25T02:02:35.199Z,1028.16
2017-03-25T02:03:16.081Z,1028.17
2017-03-25T02:03:56.969Z,1028.13
2017-03-25T02:04:37.848Z,1028.13
2017-03-25T02:05:18.732Z,1028.08
2017-03-25T02:05:59.613Z,1028.1
2017-03-25T02:06:40.493Z,1028.09
2017-03-25T02:07:21.377Z,1028.05
2017-03-25T02:08:02.258Z,1028.04
2017-03-25T02:08:43.141Z,1028
2017-03-25T02:09:24.018Z,1028.05
2017-03-25T02:10:04.900Z,1027.99
2017-03-25T02:10:45.781Z,1027.99
2017-03-25T02:11:26.667Z,1027.97
2017-03-25T02:12:07.548Z,1027.99
2017-03-25T02:12:48.438Z,1027.96
2017-03-25T02:13:29.322Z,1027.98
2017-03-25T02:14:10.197Z,1028
2017-03-25T02:14:51.080Z,1028.02
2017-03-25T02:15:31.966Z,1027.99
2017-03-25T02:16:12.848Z,1027.93
2017-03-25T02:16:53.733Z,1027.96
2017-03-25T02:17:34.613Z,1027.9
2017-03-25T02:18:15.499Z,1027.92
2017-03-25T02:18:56.376Z,1027.93
2017-03-25T02:19:37.260Z,1027.91
2017-03-25T02:20:18.144Z,1027.92
2017-03-25T02:20:59.036Z,1027.88
2017-03-25T02:21:39.918Z,1027.88
2017-03-25T02:22:20.795Z,1027.86
2017-03-25T02:23:01.676Z,1027.87
2017-03-25T02:23:42.561Z,1027.91
2017-03-25T02:24:23.444Z,1027.91
2017-03-25T02:25:04.328Z,1027.89
2017-03-25T02:25:45.212Z,1027.92
2017-03-25T02:26:26.095Z,1027.93
2017-03-25T02:27:06.984Z,1027.92
2017-03-25T02:27:47.858Z,1027.89
2017-03-25T02:28:28.734Z,1027.94
2017-03-25T02:29:09.615Z,1027.93
2017-03-25T02:29:50.511Z,1027.86
2017-03-25T02:30:31.393Z,1027.88
2017-03-25T02:31:12.271Z,1027.95
2017-03-25T02:31:53.153Z,1027.92
2017-03-25T02:32:34.025Z,1027.92
2017-03-25T02:33:14.958Z,1027.93
2017-03-25T02:33:55.800Z,1027.93
2017-03-25T02:34:36.679Z,1027.97
2017-03-25T02:35:17.559Z,1027.98
2017-03-25T02:35:58.437Z,1027.99
2017-03-25T02:36:39.311Z,1027.95
2017-03-25T02:37:20.190Z,1027.99
2017-03-25T02:38:01.063Z,1027.99
2017-03-25T02:38:41.948Z,1027.98
2017-03-25T02:39:22.832Z,1027.95
2017-03-25T02:40:03.714Z,1027.99
2017-03-25T02:40:44.594Z,1027.95
2017-03-25T02:41:25.472Z,1027.96
2017-03-25T02:42:06.362Z,1027.94
2017-03-25T02:42:47.244Z,1027.96
2017-03-25T02:43:28.122Z,1027.94
2017-03-25T02:44:09.002Z,1027.93
2017-03-25T02:44:49.886Z,1027.94
2017-03-25T02:45:30.770Z,1027.92
2017-03-25T02:46:11.649Z,1027.93
2017-03-25T02:46:52.532Z,1027.91
2017-03-25T02:47:33.414Z,1027.9
2017-03-25T02:48:14.291Z,1027.88
2017-03-25T02:48:55.174Z,1027.85
2017-03-25T02:49:36.097Z,1027.85
2017-03-25T02:50:16.935Z,1027.87
2017-03-25T02:50:57.826Z,1027.87
2017-03-25T02:51:38.700Z,1027.9
2017-03-25T02:52:19.583Z,1027.87
2017-03-25T02:53:00.473Z,1027.83
2017-03-25T02:53:41.361Z,1027.79
2017-03-25T02:54:22.240Z,1027.79
2017-03-25T02:55:03.121Z,1027.74
2017-03-25T02:55:44.005Z,1027.77
2017-03-25T02:56:24.880Z,1027.71
2017-03-25T02:57:05.760Z,1027.71
2017-03-25T02:57:46.645Z,1027.69
2017-03-25T02:58:27.524Z,1027.73
2017-03-25T02:59:08.413Z,1027.73
2017-03-25T02:59:49.297Z,1027.75
2017-03-25T03:00:30.180Z,1027.7
2017-03-25T03:01:11.061Z,1027.74
2017-03-25T03:01:51.946Z,1027.73
2017-03-25T03:02:32.830Z,1027.73
2017-03-25T03:03:13.708Z,1027.73
2017-03-25T03:03:54.591Z,1027.7
2017-03-25T03:04:35.471Z,1027.7
2017-03-25T03:05:16.353Z,1027.68
2017-03-25T03:05:57.239Z,1027.73
2017-03-25T03:06:38.126Z,1027.69
2017-03-25T03:07:19.007Z,1027.69
2017-03-25T03:07:59.887Z,1027.69
2017-03-25T03:08:40.775Z,1027.69
2017-03-25T03:09:21.654Z,1027.69
2017-03-25T03:10:02.529Z,1027.67
2017-03-25T03:10:43.412Z,1027.69
2017-03-25T03:11:24.281Z,1027.63
2017-03-25T03:12:05.164Z,1027.61
2017-03-25T03:12:46.040Z,1027.65
2017-03-25T03:13:26.922Z,1027.57
2017-03-25T03:14:07.803Z,1027.58
2017-03-25T03:14:48.685Z,1027.56
2017-03-25T03:15:29.570Z,1027.6
2017-03-25T03:16:10.452Z,1027.6
2017-03-25T03:16:51.387Z,1027.57
2017-03-25T03:17:32.219Z,1027.59
2017-03-25T03:18:13.097Z,1027.6
2017-03-25T03:18:53.977Z,1027.63
2017-03-25T03:19:34.853Z,1027.63
2017-03-25T03:20:15.735Z,1027.59
2017-03-25T03:20:56.610Z,1027.63
2017-03-25T03:21:37.490Z,1027.61
2017-03-25T03:22:18.372Z,1027.61
2017-03-25T03:22:59.256Z,1027.59
2017-03-25T03:23:40.141Z,1027.61
2017-03-25T03:24:21.024Z,1027.58
2017-03-25T03:25:01.910Z,1027.58
2017-03-25T03:25:42.794Z,1027.58
2017-03-25T03:26:23.675Z,1027.52
2017-03-25T03:27:04.577Z,1027.51
2017-03-25T03:27:45.455Z,1027.54
2017-03-25T03:28:26.334Z,1027.51
2017-03-25T03:29:07.222Z,1027.48
2017-03-25T03:29:48.103Z,1027.47
2017-03-25T03:30:28.985Z,1027.51
2017-03-25T03:31:09.866Z,1027.49
2017-03-25T03:31:50.754Z,1027.46
2017-03-25T03:32:31.629Z,1027.41
2017-03-25T03:33:12.511Z,1027.4
2017-03-25T03:33:53.394Z,1027.38
2017-03-25T03:34:34.278Z,1027.39
2017-03-25T03:35:15.152Z,1027.41
2017-03-25T03:35:56.044Z,1027.41
2017-03-25T03:36:36.928Z,1027.37
2017-03-25T03:37:17.822Z,1027.39
2017-03-25T03:37:58.702Z,1027.42
2017-03-25T03:38:39.585Z,1027.39
2017-03-25T03:39:20.466Z,1027.42
2017-03-25T03:40:01.344Z,1027.44
2017-03-25T03:40:42.224Z,1027.43
2017-03-25T03:41:23.108Z,1027.44
2017-03-25T03:42:03.991Z,1027.46
2017-03-25T03:42:44.873Z,1027.47
2017-03-25T03:43:25.755Z,1027.45
2017-03-25T03:44:06.644Z,1027.43
2017-03-25T03:44:47.530Z,1027.45
2017-03-25T03:45:28.410Z,1027.45
2017-03-25T03:46:09.292Z,1027.43
2017-03-25T03:46:50.177Z,1027.42
2017-03-25T03:47:31.057Z,1027.38
2017-03-25T03:48:11.939Z,1027.36
2017-03-25T03:48:52.825Z,1027.39
2017-03-25T03:49:33.703Z,1027.37
2017-03-25T03:50:14.591Z,1027.35
2017-03-25T03:50:55.473Z,1027.38
2017-03-25T03:51:36.360Z,1027.37
2017-03-25T03:52:17.245Z,1027.36
2017-03-25T03:52:58.126Z,1027.34
2017-03-25T03:53:39.007Z,1027.35
2017-03-25T03:54:19.888Z,1027.34
2017-03-25T03:55:00.771Z,1027.34
2017-03-25T03:55:41.661Z,1027.37
2017-03-25T03:56:22.543Z,1027.35
2017-03-25T03:57:03.422Z,1027.34
2017-03-25T03:57:44.307Z,1027.35
2017-03-25T03:58:25.195Z,1027.34
2017-03-25T03:59:06.076Z,1027.33
2017-03-25T03:59:46.957Z,1027.32
2017-03-25T04:00:27.835Z,1027.31
2017-03-25T04:01:08.726Z,1027.28
2017-03-25T04:01:49.604Z,1027.3
2017-03-25T04:02:30.481Z,1027.29
2017-03-25T04:03:11.365Z,1027.25
2017-03-25T04:03:52.251Z,1027.29
2017-03-25T04:04:33.128Z,1027.24
2017-03-25T04:05:14.009Z,1027.25
2017-03-25T04:05:54.886Z,1027.27
2017-03-25T04:06:35.769Z,1027.24
2017-03-25T04:07:16.654Z,1027.23
2017-03-25T04:07:57.534Z,1027.24
2017-03-25T04:08:38.420Z,1027.23
2017-03-25T04:09:19.300Z,1027.24
2017-03-25T04:10:00.187Z,1027.25
2017-03-25T04:10:41.071Z,1027.25
2017-03-25T04:11:21.945Z,1027.25
2017-03-25T04:12:02.825Z,1027.23
2017-03-25T04:12:43.709Z,1027.21
2017-03-25T04:13:24.595Z,1027.2
2017-03-25T04:14:05.475Z,1027.14
2017-03-25T04:14:46.355Z,1027.17
2017-03-25T04:15:27.252Z,1027.13
2017-03-25T04:16:08.134Z,1027.14
2017-03-25T04:16:49.013Z,1027.15
2017-03-25T04:17:29.897Z,1027.16
2017-03-25T04:18:10.786Z,1027.18
2017-03-25T04:18:51.666Z,1027.16
2017-03-25T04:19:32.536Z,1027.17
2017-03-25T04:20:13.419Z,1027.18
2017-03-25T04:20:54.301Z,1027.16
2017-03-25T04:21:35.187Z,1027.13
2017-03-25T04:22:16.070Z,1027.13
2017-03-25T04:22:56.957Z,1027.13
2017-03-25T04:23:37.836Z,1027.15
2017-03-25T04:24:18.713Z,1027.13
2017-03-25T04:24:59.592Z,1027.13
2017-03-25T04:25:40.472Z,1027.12
2017-03-25T04:26:21.355Z,1027.14
2017-03-25T04:27:02.238Z,1027.13
2017-03-25T04:27:43.122Z,1027.11
2017-03-25T04:28:24.008Z,1027.1
2017-03-25T04:29:04.886Z,1027.12
2017-03-25T04:29:45.768Z,1027.1
2017-03-25T04:30:26.650Z,1027.11
2017-03-25T04:31:07.535Z,1027.1
2017-03-25T04:31:48.413Z,1027.13
2017-03-25T04:32:29.308Z,1027.11
2017-03-25T04:33:10.188Z,1027.16
2017-03-25T04:33:51.065Z,1027.16
2017-03-25T04:34:31.941Z,1027.14
2017-03-25T04:35:12.823Z,1027.14
2017-03-25T04:35:53.702Z,1027.14
2017-03-25T04:36:34.592Z,1027.12
2017-03-25T04:37:15.462Z,1027.15
2017-03-25T04:37:56.361Z,1027.15
2017-03-25T04:38:37.245Z,1027.14
2017-03-25T04:39:18.128Z,1027.12
2017-03-25T04:39:59.002Z,1027.13
2017-03-25T04:40:39.884Z,1027.11
2017-03-25T04:41:20.767Z,1027.14
2017-03-25T04:42:01.647Z,1027.15
2017-03-25T04:42:42.525Z,1027.14
2017-03-25T04:43:23.406Z,1027.15
2017-03-25T04:44:04.295Z,1027.14
2017-03-25T04:44:45.177Z,1027.18
2017-03-25T04:45:26.054Z,1027.16
2017-03-25T04:46:06.934Z,1027.19
2017-03-25T04:46:47.816Z,1027.16
2017-03-25T04:47:28.697Z,1027.17
2017-03-25T04:48:09.589Z,1027.18
2017-03-25T04:48:50.454Z,1027.18
2017-03-25T04:49:31.338Z,1027.2
2017-03-25T04:50:12.231Z,1027.19
2017-03-25T04:50:53.109Z,1027.2
2017-03-25T04:51:33.989Z,1027.21
2017-03-25T04:52:14.871Z,1027.15
2017-03-25T04:52:55.777Z,1027.16
2017-03-25T04:53:36.652Z,1027.18
2017-03-25T04:54:17.531Z,1027.17
2017-03-25T04:54:58.406Z,1027.21
2017-03-25T04:55:39.286Z,1027.16
2017-03-25T04:56:20.171Z,1027.19
2017-03-25T04:57:01.048Z,1027.2
2017-03-25T04:57:41.925Z,1027.21
2017-03-25T04:58:22.800Z,1027.19
2017-03-25T04:59:03.690Z,1027.21
2017-03-25T04:59:44.574Z,1027.19
2017-03-25T05:00:25.448Z,1027.2
2017-03-25T05:01:06.331Z,1027.18
2017-03-25T05:01:47.218Z,1027.17
2017-03-25T05:02:28.100Z,1027.18
2017-03-25T05:03:08.980Z,1027.15
2017-03-25T05:03:49.858Z,1027.15
2017-03-25T05:04:30.740Z,1027.18
2017-03-25T05:05:11.626Z,1027.19
2017-03-25T05:05:52.510Z,1027.18
2017-03-25T05:06:33.397Z,1027.22
2017-03-25T05:07:14.274Z,1027.21
2017-03-25T05:07:55.173Z,1027.21
2017-03-25T05:08:36.048Z,1027.2
2017-03-25T05:09:16.926Z,1027.25
2017-03-25T05:09:57.818Z,1027.23
2017-03-25T05:10:38.695Z,1027.18
2017-03-25T05:11:19.565Z,1027.2
2017-03-25T05:12:00.447Z,1027.21
2017-03-25T05:12:41.336Z,1027.22
2017-03-25T05:13:22.218Z,1027.16
2017-03-25T05:14:03.098Z,1027.21
2017-03-25T05:14:43.973Z,1027.22
2017-03-25T05:15:24.853Z,1027.22
2017-03-25T05:16:05.729Z,1027.22
2017-03-25T05:16:46.613Z,1027.22
2017-03-25T05:17:27.491Z,1027.24
2017-03-25T05:18:08.371Z,1027.18
2017-03-25T05:18:49.247Z,1027.21
2017-03-25T05:19:30.128Z,1027.22
2017-03-25T05:20:11.015Z,1027.21
2017-03-25T05:20:51.895Z,1027.24
2017-03-25T05:21:32.772Z,1027.21
2017-03-25T05:22:13.665Z,1027.21
2017-03-25T05:22:54.544Z,1027.21
2017-03-25T05:23:35.422Z,1027.21
2017-03-25T05:24:16.300Z,1027.25
2017-03-25T05:24:57.178Z,1027.27
2017-03-25T05:25:38.077Z,1027.21
2017-03-25T05:26:18.953Z,1027.24
2017-03-25T05:26:59.850Z,1027.25
2017-03-25T05:29:02.558Z,1027.2
2017-03-25T05:29:43.440Z,1027.2
2017-03-25T05:30:24.316Z,1027.18
2017-03-25T05:31:05.195Z,1027.18
2017-03-25T05:31:46.078Z,1027.19
2017-03-25T05:32:26.964Z,1027.19
2017-03-25T05:33:07.835Z,1027.19
2017-03-25T05:33:48.711Z,1027.15
2017-03-25T05:34:29.589Z,1027.15
2017-03-25T05:35:10.473Z,1027.14
2017-03-25T05:35:51.355Z,1027.16
2017-03-25T05:36:32.236Z,1027.15
2017-03-25T05:37:13.119Z,1027.16
2017-03-25T05:37:54.013Z,1027.15
2017-03-25T05:38:34.892Z,1027.16
2017-03-25T05:39:15.775Z,1027.13
2017-03-25T05:39:56.647Z,1027.17
2017-03-25T05:40:37.536Z,1027.14
2017-03-25T05:41:18.417Z,1027.16
2017-03-25T05:41:59.296Z,1027.12
2017-03-25T05:42:40.174Z,1027.12
2017-03-25T05:43:21.046Z,1027.13
2017-03-25T05:44:01.932Z,1027.12
2017-03-25T05:44:42.811Z,1027.12
2017-03-25T05:45:23.686Z,1027.14
2017-03-25T05:46:04.570Z,1027.14
2017-03-25T05:46:45.436Z,1027.17
2017-03-25T05:47:26.321Z,1027.1
2017-03-25T05:48:07.202Z,1027.1
2017-03-25T05:48:48.083Z,1027.11
2017-03-25T05:49:28.959Z,1027.13
2017-03-25T05:50:09.835Z,1027.11
2017-03-25T05:50:50.715Z,1027.1
2017-03-25T05:51:31.594Z,1027.09
2017-03-25T05:52:12.476Z,1027.12
2017-03-25T05:52:53.357Z,1027.13
2017-03-25T05:53:34.237Z,1027.1
2017-03-25T05:54:15.121Z,1027.11
2017-03-25T05:54:56.002Z,1027.11
2017-03-25T05:55:36.885Z,1027.09
2017-03-25T05:56:17.796Z,1027.11
2017-03-25T05:56:58.673Z,1027.07
2017-03-25T05:57:39.557Z,1027.11
2017-03-25T05:58:20.428Z,1027.06
2017-03-25T05:59:01.314Z,1027.08
2017-03-25T05:59:42.195Z,1027.09
2017-03-25T06:00:23.079Z,1027.1
2017-03-25T06:01:03.962Z,1027.08
2017-03-25T06:01:44.845Z,1027.06
2017-03-25T06:02:25.725Z,1027.04
2017-03-25T06:03:06.603Z,1027.05
2017-03-25T06:03:47.495Z,1027.04
2017-03-25T06:04:28.374Z,1027.04
2017-03-25T06:05:09.252Z,1027.02
2017-03-25T06:05:50.129Z,1027.04
2017-03-25T06:06:31.004Z,1027.02
2017-03-25T06:07:11.883Z,1027.04
2017-03-25T06:07:52.788Z,1027.06
2017-03-25T06:08:33.686Z,1027.07
2017-03-25T06:09:14.537Z,1027.05
2017-03-25T06:09:55.423Z,1027.04
2017-03-25T06:10:36.299Z,1027.03
2017-03-25T06:11:17.184Z,1027.03
2017-03-25T06:11:58.062Z,1027.05
2017-03-25T06:12:38.937Z,1027.03
2017-03-25T06:13:19.814Z,1027.03
2017-03-25T06:14:00.698Z,1027.04
2017-03-25T06:14:41.585Z,1027.04
2017-03-25T06:15:22.460Z,1027
2017-03-25T06:16:03.342Z,1027.01
2017-03-25T06:16:44.223Z,1027
2017-03-25T06:17:25.104Z,1027.03
2017-03-25T06:18:05.983Z,1027
2017-03-25T06:18:46.865Z,1027.05
2017-03-25T06:19:27.754Z,1027.03
2017-03-25T06:20:08.638Z,1027.05
2017-03-25T06:20:49.510Z,1027.04
2017-03-25T06:21:30.386Z,1026.99
2017-03-25T06:22:11.271Z,1027.02
2017-03-25T06:22:52.154Z,1027.01
2017-03-25T06:23:33.035Z,1027.01
2017-03-25T06:24:13.907Z,1027
2017-03-25T06:24:54.775Z,1027.06
2017-03-25T06:25:35.659Z,1027.06
2017-03-25T06:26:16.551Z,1027.06
2017-03-25T06:26:57.438Z,1027.03
2017-03-25T06:27:38.305Z,1027.05
2017-03-25T06:28:19.188Z,1027.08
2017-03-25T06:29:00.072Z,1027.12
2017-03-25T06:29:40.956Z,1027.1
2017-03-25T06:30:21.828Z,1027.12
2017-03-25T06:31:02.702Z,1027.14
2017-03-25T06:31:43.582Z,1027.07
2017-03-25T06:32:24.466Z,1027.12
2017-03-25T06:33:05.347Z,1027.1
2017-03-25T06:33:46.238Z,1027.08
2017-03-25T06:34:27.120Z,1027.11
2017-03-25T06:35:09.573Z,1027.11
2017-03-25T06:35:50.459Z,1027.1
2017-03-25T06:36:31.339Z,1027.13
2017-03-25T06:37:12.217Z,1027.16
2017-03-25T06:37:53.095Z,1027.08
2017-03-25T06:38:33.972Z,1027.1
2017-03-25T06:39:14.854Z,1027.11
2017-03-25T06:39:55.736Z,1027.12
2017-03-25T06:40:36.622Z,1027.1
2017-03-25T06:41:17.498Z,1027.06
2017-03-25T06:41:58.371Z,1027.08
2017-03-25T06:42:39.252Z,1027.08
2017-03-25T06:43:20.137Z,1027.12
2017-03-25T06:44:01.018Z,1027.1
2017-03-25T06:44:41.898Z,1027.1
2017-03-25T06:45:22.794Z,1027.15
2017-03-25T06:46:03.675Z,1027.16
2017-03-25T06:46:44.554Z,1027.17
2017-03-25T06:47:25.430Z,1027.2
2017-03-25T06:48:06.313Z,1027.21
2017-03-25T06:48:47.196Z,1027.18
2017-03-25T06:49:28.076Z,1027.16
2017-03-25T06:50:08.955Z,1027.15
2017-03-25T06:50:49.833Z,1027.17
2017-03-25T06:51:30.710Z,1027.19
2017-03-25T06:52:11.597Z,1027.16
2017-03-25T06:52:52.478Z,1027.17
2017-03-25T06:53:33.357Z,1027.14
2017-03-25T06:54:14.240Z,1027.13
2017-03-25T06:54:55.131Z,1027.13
2017-03-25T06:55:36.021Z,1027.15
2017-03-25T06:56:16.891Z,1027.11
2017-03-25T06:56:57.775Z,1027.14
2017-03-25T06:57:38.661Z,1027.15
2017-03-25T06:58:19.543Z,1027.17
2017-03-25T06:59:00.424Z,1027.14
2017-03-25T06:59:41.300Z,1027.12
2017-03-25T07:00:22.179Z,1027.13
2017-03-25T07:01:03.059Z,1027.1
2017-03-25T07:01:43.937Z,1027.14
2017-03-25T07:02:24.831Z,1027.13
2017-03-25T07:03:05.721Z,1027.15
2017-03-25T07:03:46.604Z,1027.15
2017-03-25T07:04:27.487Z,1027.15
2017-03-25T07:05:08.369Z,1027.14
2017-03-25T07:05:49.261Z,1027.15
2017-03-25T07:06:30.157Z,1027.18
2017-03-25T07:07:11.020Z,1027.16
2017-03-25T07:07:51.900Z,1027.14
2017-03-25T07:08:32.776Z,1027.13
2017-03-25T07:09:13.655Z,1027.16
2017-03-25T07:09:54.560Z,1027.17
2017-03-25T07:10:35.431Z,1027.19
2017-03-25T07:11:16.311Z,1027.22
2017-03-25T07:11:57.200Z,1027.25
2017-03-25T07:12:38.075Z,1027.2
2017-03-25T07:13:19.013Z,1027.22
2017-03-25T07:13:59.862Z,1027.24
2017-03-25T07:14:40.752Z,1027.18
2017-03-25T07:15:21.627Z,1027.19
2017-03-25T07:16:02.509Z,1027.22
2017-03-25T07:16:43.386Z,1027.23
2017-03-25T07:17:24.271Z,1027.23
2017-03-25T07:18:05.149Z,1027.24
2017-03-25T07:18:46.029Z,1027.23
2017-03-25T07:19:26.916Z,1027.25
2017-03-25T07:20:07.801Z,1027.23
2017-03-25T07:20:48.677Z,1027.23
2017-03-25T07:21:29.554Z,1027.22
2017-03-25T07:22:10.433Z,1027.17
2017-03-25T07:22:51.325Z,1027.17
2017-03-25T07:23:32.210Z,1027.15
2017-03-25T07:24:13.086Z,1027.12
2017-03-25T07:24:53.967Z,1027.13
2017-03-25T07:25:34.846Z,1027.15
2017-03-25T07:26:15.724Z,1027.12
2017-03-25T07:26:56.614Z,1027.15
2017-03-25T07:27:37.497Z,1027.15
2017-03-25T07:28:18.386Z,1027.13
2017-03-25T07:28:59.265Z,1027.17
2017-03-25T07:29:40.142Z,1027.16
2017-03-25T07:30:21.032Z,1027.18
2017-03-25T07:31:01.916Z,1027.16
2017-03-25T07:31:42.801Z,1027.17
2017-03-25T07:32:23.676Z,1027.09
2017-03-25T07:33:04.563Z,1027.1
2017-03-25T07:33:45.446Z,1027.1
2017-03-25T07:34:26.335Z,1027.09
2017-03-25T07:35:07.219Z,1027.08
2017-03-25T07:35:48.102Z,1027.04
2017-03-25T07:36:28.985Z,1027.09
2017-03-25T07:37:09.866Z,1027.08
2017-03-25T07:37:52.583Z,1027.08
2017-03-25T07:38:33.469Z,1027.09
2017-03-25T07:39:14.355Z,1027.09
2017-03-25T07:39:55.234Z,1027.1
2017-03-25T07:40:36.118Z,1027.09
2017-03-25T07:41:17.003Z,1027.1
2017-03-25T07:41:57.886Z,1027.1
2017-03-25T07:42:38.773Z,1027.08
2017-03-25T07:43:19.653Z,1027.08
2017-03-25T07:44:00.530Z,1027.08
2017-03-25T07:44:41.411Z,1027.09
2017-03-25T07:45:22.295Z,1027.1
2017-03-25T07:46:03.175Z,1027.1
2017-03-25T07:46:44.046Z,1027.13
2017-03-25T07:47:24.931Z,1027.11
2017-03-25T07:48:05.819Z,1027.16
2017-03-25T07:48:46.700Z,1027.12
2017-03-25T07:49:27.579Z,1027.11
2017-03-25T07:50:08.468Z,1027.11
2017-03-25T07:50:49.353Z,1027.1
2017-03-25T07:51:30.244Z,1027.11
2017-03-25T07:52:11.124Z,1027.12
2017-03-25T07:52:52.003Z,1027.07
2017-03-25T07:53:32.889Z,1027.03
2017-03-25T07:54:13.777Z,1027
2017-03-25T07:54:54.640Z,1026.99
2017-03-25T07:55:35.510Z,1027.02
2017-03-25T07:56:16.397Z,1027.02
2017-03-25T07:56:57.282Z,1027.04
2017-03-25T07:57:38.169Z,1027.04
2017-03-25T07:58:19.046Z,1027.06
2017-03-25T07:58:59.927Z,1027.01
2017-03-25T07:59:40.804Z,1027.01
2017-03-25T08:00:21.687Z,1027.03
2017-03-25T08:01:02.571Z,1027.04
2017-03-25T08:01:43.451Z,1027.07
2017-03-25T08:02:24.326Z,1027.06
2017-03-25T08:03:05.206Z,1027.12
2017-03-25T08:03:46.093Z,1027.1
2017-03-25T08:04:26.967Z,1027.1
2017-03-25T08:05:07.855Z,1027.06
2017-03-25T08:05:48.741Z,1027.07
2017-03-25T08:06:29.625Z,1027.01
2017-03-25T08:07:10.515Z,1027.05
2017-03-25T08:07:51.377Z,1026.99
2017-03-25T08:08:32.251Z,1027.01
2017-03-25T08:09:13.133Z,1027
2017-03-25T08:09:54.016Z,1026.98
2017-03-25T08:10:34.891Z,1027.02
2017-03-25T08:11:15.780Z,1027.02
2017-03-25T08:11:56.661Z,1027
2017-03-25T08:12:37.574Z,1026.98
2017-03-25T08:13:18.455Z,1027.01
2017-03-25T08:13:59.346Z,1026.97
2017-03-25T08:14:40.228Z,1026.99
2017-03-25T08:15:21.107Z,1026.93
2017-03-25T08:16:01.984Z,1026.97
2017-03-25T08:16:42.873Z,1026.94
2017-03-25T08:17:23.759Z,1026.99
2017-03-25T08:18:04.664Z,1026.99